sensor_id;sensor_type;location;lat;lon;timestamp;temperature;humidity
6118;DHT22;3089;48.202;11.510;2023-07-20T00:00:25;22.40;99.90
6118;DHT22;3089;48.202;11.510;2023-07-20T00:03:12;22.50;99.90
6118;DHT22;3089;48.202;11.510;2023-07-20T00:05:43;22.50;99.90
6118;DHT22;3089;48.202;11.510;2023-07-20T00:08:11;22.40;99.90
6118;DHT22;3089;48.202;11.510;2023-07-20T00:10:40;22.40;99.90
6118;DHT22;3089;48.202;11.510;2023-07-20T00:13:10;22.40;99.90
6118;DHT22;3089;48.202;11.510;2023-07-20T00:15:38;22.30;99.90
6118;DHT22;3089;48.202;11.510;2023-07-20T00:18:06;22.40;99.90
6118;DHT22;3089;48.202;11.510;2023-07-20T00:20:34;22.40;99.90
6118;DHT22;3089;48.202;11.510;2023-07-20T00:23:02;22.40;99.90
6118;DHT22;3089;48.202;11.510;2023-07-20T00:25:30;22.40;99.90
6118;DHT22;3089;48.202;11.510;2023-07-20T00:27:58;22.30;99.90
6118;DHT22;3089;48.202;11.510;2023-07-20T00:30:27;22.30;99.90
6118;DHT22;3089;48.202;11.510;2023-07-20T00:32:55;22.30;99.90
6118;DHT22;3089;48.202;11.510;2023-07-20T00:35:24;22.20;99.90
6118;DHT22;3089;48.202;11.510;2023-07-20T00:37:51;22.20;99.90
6118;DHT22;3089;48.202;11.510;2023-07-20T00:40:19;22.20;99.90
6118;DHT22;3089;48.202;11.510;2023-07-20T00:42:47;22.20;99.90
6118;DHT22;3089;48.202;11.510;2023-07-20T00:45:15;22.20;99.90
6118;DHT22;3089;48.202;11.510;2023-07-20T00:47:45;22.30;99.90
6118;DHT22;3089;48.202;11.510;2023-07-20T00:50:13;22.20;99.90
6118;DHT22;3089;48.202;11.510;2023-07-20T00:52:41;22.20;99.90
6118;DHT22;3089;48.202;11.510;2023-07-20T00:55:09;22.20;99.90
6118;DHT22;3089;48.202;11.510;2023-07-20T00:57:38;22.10;99.90
6118;DHT22;3089;48.202;11.510;2023-07-20T01:00:07;22.00;99.90
6118;DHT22;3089;48.202;11.510;2023-07-20T01:02:35;22.10;99.90
6118;DHT22;3089;48.202;11.510;2023-07-20T01:05:05;21.90;99.90
6118;DHT22;3089;48.202;11.510;2023-07-20T01:07:36;21.70;99.90
6118;DHT22;3089;48.202;11.510;2023-07-20T01:10:10;21.90;99.90
6118;DHT22;3089;48.202;11.510;2023-07-20T01:12:41;22.00;99.90
6118;DHT22;3089;48.202;11.510;2023-07-20T01:15:10;22.00;99.90
6118;DHT22;3089;48.202;11.510;2023-07-20T01:17:38;22.00;99.90
6118;DHT22;3089;48.202;11.510;2023-07-20T01:20:10;22.00;99.90
6118;DHT22;3089;48.202;11.510;2023-07-20T01:23:10;22.00;99.90
6118;DHT22;3089;48.202;11.510;2023-07-20T01:25:57;21.90;99.90
6118;DHT22;3089;48.202;11.510;2023-07-20T01:28:37;21.80;99.90
6118;DHT22;3089;48.202;11.510;2023-07-20T01:31:16;21.80;99.90
6118;DHT22;3089;48.202;11.510;2023-07-20T01:33:46;21.70;99.90
6118;DHT22;3089;48.202;11.510;2023-07-20T01:36:16;21.70;99.90
6118;DHT22;3089;48.202;11.510;2023-07-20T01:38:46;21.80;99.90
6118;DHT22;3089;48.202;11.510;2023-07-20T01:41:15;21.80;99.90
6118;DHT22;3089;48.202;11.510;2023-07-20T01:43:42;21.80;99.90
6118;DHT22;3089;48.202;11.510;2023-07-20T01:46:10;21.90;99.90
6118;DHT22;3089;48.202;11.510;2023-07-20T01:48:40;21.90;99.90
6118;DHT22;3089;48.202;11.510;2023-07-20T01:51:08;21.90;99.90
6118;DHT22;3089;48.202;11.510;2023-07-20T01:53:35;21.80;99.90
6118;DHT22;3089;48.202;11.510;2023-07-20T01:56:03;21.80;99.90
6118;DHT22;3089;48.202;11.510;2023-07-20T01:58:31;21.80;99.90
6118;DHT22;3089;48.202;11.510;2023-07-20T02:01:00;21.80;99.90
6118;DHT22;3089;48.202;11.510;2023-07-20T02:03:28;21.80;99.90
6118;DHT22;3089;48.202;11.510;2023-07-20T02:05:57;21.80;99.90
6118;DHT22;3089;48.202;11.510;2023-07-20T02:08:25;21.70;99.90
6118;DHT22;3089;48.202;11.510;2023-07-20T02:10:53;21.70;99.90
6118;DHT22;3089;48.202;11.510;2023-07-20T02:13:21;21.80;99.90
6118;DHT22;3089;48.202;11.510;2023-07-20T02:15:49;21.70;99.90
6118;DHT22;3089;48.202;11.510;2023-07-20T02:18:17;21.70;99.90
6118;DHT22;3089;48.202;11.510;2023-07-20T02:20:45;21.60;99.90
6118;DHT22;3089;48.202;11.510;2023-07-20T02:23:14;21.70;99.90
6118;DHT22;3089;48.202;11.510;2023-07-20T02:25:42;21.70;99.90
6118;DHT22;3089;48.202;11.510;2023-07-20T02:28:13;21.70;99.90
6118;DHT22;3089;48.202;11.510;2023-07-20T02:30:41;21.70;99.90
6118;DHT22;3089;48.202;11.510;2023-07-20T02:33:09;21.70;99.90
6118;DHT22;3089;48.202;11.510;2023-07-20T02:35:37;21.70;99.90
6118;DHT22;3089;48.202;11.510;2023-07-20T02:38:04;21.70;99.90
6118;DHT22;3089;48.202;11.510;2023-07-20T02:40:34;21.70;99.90
6118;DHT22;3089;48.202;11.510;2023-07-20T02:43:02;21.70;99.90
6118;DHT22;3089;48.202;11.510;2023-07-20T02:45:30;21.60;99.90
6118;DHT22;3089;48.202;11.510;2023-07-20T02:47:58;21.50;99.90
6118;DHT22;3089;48.202;11.510;2023-07-20T02:50:26;21.60;99.90
6118;DHT22;3089;48.202;11.510;2023-07-20T02:52:54;21.50;99.90
6118;DHT22;3089;48.202;11.510;2023-07-20T02:55:22;21.50;99.90
6118;DHT22;3089;48.202;11.510;2023-07-20T02:57:51;21.50;99.90
6118;DHT22;3089;48.202;11.510;2023-07-20T03:00:18;21.50;99.90
6118;DHT22;3089;48.202;11.510;2023-07-20T03:02:50;21.50;99.90
6118;DHT22;3089;48.202;11.510;2023-07-20T03:05:22;21.40;99.90
6118;DHT22;3089;48.202;11.510;2023-07-20T03:07:51;21.40;99.90
6118;DHT22;3089;48.202;11.510;2023-07-20T03:10:19;21.40;99.90
6118;DHT22;3089;48.202;11.510;2023-07-20T03:12:47;21.40;99.90
6118;DHT22;3089;48.202;11.510;2023-07-20T03:15:16;21.30;99.90
6118;DHT22;3089;48.202;11.510;2023-07-20T03:17:44;21.20;99.90
6118;DHT22;3089;48.202;11.510;2023-07-20T03:20:12;21.20;99.90
6118;DHT22;3089;48.202;11.510;2023-07-20T03:22:40;21.40;99.90
6118;DHT22;3089;48.202;11.510;2023-07-20T03:25:08;21.40;99.90
6118;DHT22;3089;48.202;11.510;2023-07-20T03:27:36;21.40;99.90
6118;DHT22;3089;48.202;11.510;2023-07-20T03:30:05;21.40;99.90
6118;DHT22;3089;48.202;11.510;2023-07-20T03:32:35;21.30;99.90
6118;DHT22;3089;48.202;11.510;2023-07-20T03:35:03;21.30;99.90
6118;DHT22;3089;48.202;11.510;2023-07-20T03:37:31;21.10;99.90
6118;DHT22;3089;48.202;11.510;2023-07-20T03:40:01;21.10;99.90
6118;DHT22;3089;48.202;11.510;2023-07-20T03:42:29;21.20;99.90
6118;DHT22;3089;48.202;11.510;2023-07-20T03:44:57;21.30;99.90
6118;DHT22;3089;48.202;11.510;2023-07-20T03:47:25;21.20;99.90
6118;DHT22;3089;48.202;11.510;2023-07-20T03:49:54;21.20;99.90
6118;DHT22;3089;48.202;11.510;2023-07-20T03:52:22;21.20;99.90
6118;DHT22;3089;48.202;11.510;2023-07-20T03:54:50;21.20;99.90
6118;DHT22;3089;48.202;11.510;2023-07-20T03:57:18;21.20;99.90
6118;DHT22;3089;48.202;11.510;2023-07-20T03:59:47;21.20;99.90
6118;DHT22;3089;48.202;11.510;2023-07-20T04:02:15;21.20;99.90
6118;DHT22;3089;48.202;11.510;2023-07-20T04:04:43;21.00;99.90
6118;DHT22;3089;48.202;11.510;2023-07-20T04:07:12;21.10;99.90
6118;DHT22;3089;48.202;11.510;2023-07-20T04:09:40;21.20;99.90
6118;DHT22;3089;48.202;11.510;2023-07-20T04:12:08;21.20;99.90
6118;DHT22;3089;48.202;11.510;2023-07-20T04:14:36;21.10;99.90
6118;DHT22;3089;48.202;11.510;2023-07-20T04:17:04;21.20;99.90
6118;DHT22;3089;48.202;11.510;2023-07-20T04:19:32;21.20;99.90
6118;DHT22;3089;48.202;11.510;2023-07-20T04:22:00;21.20;99.90
6118;DHT22;3089;48.202;11.510;2023-07-20T04:24:30;21.20;99.90
6118;DHT22;3089;48.202;11.510;2023-07-20T04:26:58;21.20;99.90
6118;DHT22;3089;48.202;11.510;2023-07-20T04:29:25;21.20;99.90
6118;DHT22;3089;48.202;11.510;2023-07-20T04:31:53;21.10;99.90
6118;DHT22;3089;48.202;11.510;2023-07-20T04:34:21;21.10;99.90
6118;DHT22;3089;48.202;11.510;2023-07-20T04:36:49;21.10;99.90
6118;DHT22;3089;48.202;11.510;2023-07-20T04:39:17;21.00;99.90
6118;DHT22;3089;48.202;11.510;2023-07-20T04:41:59;21.00;99.90
6118;DHT22;3089;48.202;11.510;2023-07-20T04:44:26;21.00;99.90
6118;DHT22;3089;48.202;11.510;2023-07-20T04:46:54;21.00;99.90
6118;DHT22;3089;48.202;11.510;2023-07-20T04:49:22;21.00;99.90
6118;DHT22;3089;48.202;11.510;2023-07-20T04:51:51;21.00;99.90
6118;DHT22;3089;48.202;11.510;2023-07-20T04:54:19;21.00;99.90
6118;DHT22;3089;48.202;11.510;2023-07-20T04:56:46;21.00;99.90
6118;DHT22;3089;48.202;11.510;2023-07-20T04:59:18;21.00;99.90
6118;DHT22;3089;48.202;11.510;2023-07-20T05:01:46;21.00;99.90
6118;DHT22;3089;48.202;11.510;2023-07-20T05:04:14;21.00;99.90
6118;DHT22;3089;48.202;11.510;2023-07-20T05:06:44;21.00;99.90
6118;DHT22;3089;48.202;11.510;2023-07-20T05:09:12;21.00;99.90
6118;DHT22;3089;48.202;11.510;2023-07-20T05:11:40;20.90;99.90
6118;DHT22;3089;48.202;11.510;2023-07-20T05:14:08;20.90;99.90
6118;DHT22;3089;48.202;11.510;2023-07-20T05:16:38;20.90;99.90
6118;DHT22;3089;48.202;11.510;2023-07-20T05:19:05;20.90;99.90
6118;DHT22;3089;48.202;11.510;2023-07-20T05:21:33;21.00;99.90
6118;DHT22;3089;48.202;11.510;2023-07-20T05:24:01;20.90;99.90
6118;DHT22;3089;48.202;11.510;2023-07-20T05:26:29;21.00;99.90
6118;DHT22;3089;48.202;11.510;2023-07-20T05:28:57;20.90;99.90
6118;DHT22;3089;48.202;11.510;2023-07-20T05:31:25;20.90;99.90
6118;DHT22;3089;48.202;11.510;2023-07-20T05:33:54;20.90;99.90
6118;DHT22;3089;48.202;11.510;2023-07-20T05:36:28;20.90;99.90
6118;DHT22;3089;48.202;11.510;2023-07-20T05:38:57;21.00;99.90
6118;DHT22;3089;48.202;11.510;2023-07-20T05:41:25;20.60;99.90
6118;DHT22;3089;48.202;11.510;2023-07-20T05:43:53;20.80;99.90
6118;DHT22;3089;48.202;11.510;2023-07-20T05:46:21;20.90;99.90
6118;DHT22;3089;48.202;11.510;2023-07-20T05:48:49;20.90;99.90
6118;DHT22;3089;48.202;11.510;2023-07-20T05:51:18;20.90;99.90
6118;DHT22;3089;48.202;11.510;2023-07-20T05:53:46;20.90;99.90
6118;DHT22;3089;48.202;11.510;2023-07-20T05:56:14;20.70;99.90
6118;DHT22;3089;48.202;11.510;2023-07-20T05:58:42;20.80;99.90
6118;DHT22;3089;48.202;11.510;2023-07-20T06:01:10;21.10;99.90
6118;DHT22;3089;48.202;11.510;2023-07-20T06:03:38;22.00;99.90
6118;DHT22;3089;48.202;11.510;2023-07-20T06:06:06;23.80;99.90
6118;DHT22;3089;48.202;11.510;2023-07-20T06:08:37;23.10;99.90
6118;DHT22;3089;48.202;11.510;2023-07-20T06:11:05;23.10;99.90
6118;DHT22;3089;48.202;11.510;2023-07-20T06:13:33;22.10;99.90
6118;DHT22;3089;48.202;11.510;2023-07-20T06:16:00;22.40;99.90
6118;DHT22;3089;48.202;11.510;2023-07-20T06:18:30;21.90;99.90
6118;DHT22;3089;48.202;11.510;2023-07-20T06:20:58;21.80;99.90
6118;DHT22;3089;48.202;11.510;2023-07-20T06:23:26;21.60;99.90
6118;DHT22;3089;48.202;11.510;2023-07-20T06:25:55;21.80;99.90
6118;DHT22;3089;48.202;11.510;2023-07-20T06:28:23;21.90;99.90
6118;DHT22;3089;48.202;11.510;2023-07-20T06:30:51;22.40;99.90
6118;DHT22;3089;48.202;11.510;2023-07-20T06:33:18;22.10;99.90
6118;DHT22;3089;48.202;11.510;2023-07-20T06:35:46;21.90;99.90
6118;DHT22;3089;48.202;11.510;2023-07-20T06:38:14;21.40;99.90
6118;DHT22;3089;48.202;11.510;2023-07-20T06:40:46;21.60;99.90
6118;DHT22;3089;48.202;11.510;2023-07-20T06:43:16;21.50;99.90
6118;DHT22;3089;48.202;11.510;2023-07-20T06:45:51;23.00;99.90
6118;DHT22;3089;48.202;11.510;2023-07-20T06:48:20;24.10;99.90
6118;DHT22;3089;48.202;11.510;2023-07-20T06:50:48;24.00;99.90
6118;DHT22;3089;48.202;11.510;2023-07-20T06:53:16;23.50;99.90
6118;DHT22;3089;48.202;11.510;2023-07-20T06:55:45;24.50;99.90
6118;DHT22;3089;48.202;11.510;2023-07-20T06:58:15;25.50;99.90
6118;DHT22;3089;48.202;11.510;2023-07-20T07:00:42;25.90;99.90
6118;DHT22;3089;48.202;11.510;2023-07-20T07:03:11;25.90;99.50
6118;DHT22;3089;48.202;11.510;2023-07-20T07:05:39;25.80;99.50
6118;DHT22;3089;48.202;11.510;2023-07-20T07:08:07;25.90;99.50
6118;DHT22;3089;48.202;11.510;2023-07-20T07:10:36;25.60;99.00
6118;DHT22;3089;48.202;11.510;2023-07-20T07:13:04;25.10;99.90
6118;DHT22;3089;48.202;11.510;2023-07-20T07:15:33;25.30;99.60
6118;DHT22;3089;48.202;11.510;2023-07-20T07:18:02;25.20;99.70
6118;DHT22;3089;48.202;11.510;2023-07-20T07:20:31;24.90;98.90
6118;DHT22;3089;48.202;11.510;2023-07-20T07:22:58;24.00;99.90
6118;DHT22;3089;48.202;11.510;2023-07-20T07:25:27;23.90;99.90
6118;DHT22;3089;48.202;11.510;2023-07-20T07:27:55;23.80;99.90
6118;DHT22;3089;48.202;11.510;2023-07-20T07:30:23;23.40;99.90
6118;DHT22;3089;48.202;11.510;2023-07-20T07:32:52;23.40;99.90
6118;DHT22;3089;48.202;11.510;2023-07-20T07:35:20;23.20;99.90
6118;DHT22;3089;48.202;11.510;2023-07-20T07:37:48;23.20;99.90
6118;DHT22;3089;48.202;11.510;2023-07-20T07:40:19;23.10;99.90
6118;DHT22;3089;48.202;11.510;2023-07-20T07:42:47;23.00;99.90
6118;DHT22;3089;48.202;11.510;2023-07-20T07:45:15;23.20;99.90
6118;DHT22;3089;48.202;11.510;2023-07-20T07:47:43;23.10;99.90
6118;DHT22;3089;48.202;11.510;2023-07-20T07:50:12;23.00;99.90
6118;DHT22;3089;48.202;11.510;2023-07-20T07:52:40;23.00;99.90
6118;DHT22;3089;48.202;11.510;2023-07-20T07:55:08;23.20;99.90
6118;DHT22;3089;48.202;11.510;2023-07-20T07:57:36;23.00;99.90
6118;DHT22;3089;48.202;11.510;2023-07-20T08:00:05;23.10;99.90
6118;DHT22;3089;48.202;11.510;2023-07-20T08:02:37;23.40;99.90
6118;DHT22;3089;48.202;11.510;2023-07-20T08:05:05;23.20;99.90
6118;DHT22;3089;48.202;11.510;2023-07-20T08:07:35;23.30;99.90
6118;DHT22;3089;48.202;11.510;2023-07-20T08:10:03;23.30;99.90
6118;DHT22;3089;48.202;11.510;2023-07-20T08:12:31;23.40;98.20
6118;DHT22;3089;48.202;11.510;2023-07-20T08:14:59;23.50;98.90
6118;DHT22;3089;48.202;11.510;2023-07-20T08:17:27;23.60;99.90
6118;DHT22;3089;48.202;11.510;2023-07-20T08:19:56;23.70;99.80
6118;DHT22;3089;48.202;11.510;2023-07-20T08:22:23;23.90;99.50
6118;DHT22;3089;48.202;11.510;2023-07-20T08:24:53;23.90;99.90
6118;DHT22;3089;48.202;11.510;2023-07-20T08:27:21;23.80;99.90
6118;DHT22;3089;48.202;11.510;2023-07-20T08:29:48;23.90;99.50
6118;DHT22;3089;48.202;11.510;2023-07-20T08:32:16;24.00;99.40
6118;DHT22;3089;48.202;11.510;2023-07-20T08:34:44;23.90;99.60
6118;DHT22;3089;48.202;11.510;2023-07-20T08:37:12;23.90;99.90
6118;DHT22;3089;48.202;11.510;2023-07-20T08:39:40;23.80;99.80
6118;DHT22;3089;48.202;11.510;2023-07-20T08:42:10;23.60;99.90
6118;DHT22;3089;48.202;11.510;2023-07-20T08:44:38;23.50;99.70
6118;DHT22;3089;48.202;11.510;2023-07-20T08:47:06;23.10;98.70
6118;DHT22;3089;48.202;11.510;2023-07-20T08:49:36;23.50;99.80
6118;DHT22;3089;48.202;11.510;2023-07-20T08:52:06;23.00;98.70
6118;DHT22;3089;48.202;11.510;2023-07-20T08:54:34;23.70;99.30
6118;DHT22;3089;48.202;11.510;2023-07-20T08:57:04;23.80;99.90
6118;DHT22;3089;48.202;11.510;2023-07-20T08:59:34;23.80;99.50
6118;DHT22;3089;48.202;11.510;2023-07-20T09:02:05;23.80;99.90
6118;DHT22;3089;48.202;11.510;2023-07-20T09:04:34;23.50;99.90
6118;DHT22;3089;48.202;11.510;2023-07-20T09:07:03;23.80;99.80
6118;DHT22;3089;48.202;11.510;2023-07-20T09:09:31;23.90;99.80
6118;DHT22;3089;48.202;11.510;2023-07-20T09:11:59;23.80;98.30
6118;DHT22;3089;48.202;11.510;2023-07-20T09:14:30;23.90;98.10
6118;DHT22;3089;48.202;11.510;2023-07-20T09:17:00;23.90;99.70
6118;DHT22;3089;48.202;11.510;2023-07-20T09:19:28;23.50;99.70
6118;DHT22;3089;48.202;11.510;2023-07-20T09:21:55;23.90;99.90
6118;DHT22;3089;48.202;11.510;2023-07-20T09:24:23;23.80;98.50
6118;DHT22;3089;48.202;11.510;2023-07-20T09:26:52;24.00;99.60
6118;DHT22;3089;48.202;11.510;2023-07-20T09:29:21;24.00;99.60
6118;DHT22;3089;48.202;11.510;2023-07-20T09:32:00;24.90;96.60
6118;DHT22;3089;48.202;11.510;2023-07-20T09:34:28;24.80;96.90
6118;DHT22;3089;48.202;11.510;2023-07-20T09:36:59;24.40;97.50
6118;DHT22;3089;48.202;11.510;2023-07-20T09:39:29;23.90;97.30
6118;DHT22;3089;48.202;11.510;2023-07-20T09:42:00;24.50;98.90
6118;DHT22;3089;48.202;11.510;2023-07-20T09:44:31;25.50;97.80
6118;DHT22;3089;48.202;11.510;2023-07-20T09:47:04;25.40;97.70
6118;DHT22;3089;48.202;11.510;2023-07-20T09:49:33;25.60;96.10
6118;DHT22;3089;48.202;11.510;2023-07-20T09:52:09;25.60;97.50
6118;DHT22;3089;48.202;11.510;2023-07-20T09:54:37;24.40;95.30
6118;DHT22;3089;48.202;11.510;2023-07-20T09:57:07;24.70;96.90
6118;DHT22;3089;48.202;11.510;2023-07-20T09:59:35;25.10;97.30
6118;DHT22;3089;48.202;11.510;2023-07-20T10:02:11;26.10;97.30
6118;DHT22;3089;48.202;11.510;2023-07-20T10:04:41;25.00;95.60
6118;DHT22;3089;48.202;11.510;2023-07-20T10:07:11;25.40;97.70
6118;DHT22;3089;48.202;11.510;2023-07-20T10:09:40;26.20;97.20
6118;DHT22;3089;48.202;11.510;2023-07-20T10:12:09;26.20;95.50
6118;DHT22;3089;48.202;11.510;2023-07-20T10:14:51;25.50;94.80
6118;DHT22;3089;48.202;11.510;2023-07-20T10:17:21;25.10;98.10
6118;DHT22;3089;48.202;11.510;2023-07-20T10:19:52;25.00;97.40
6118;DHT22;3089;48.202;11.510;2023-07-20T10:22:25;25.30;97.90
6118;DHT22;3089;48.202;11.510;2023-07-20T10:24:54;25.60;97.70
6118;DHT22;3089;48.202;11.510;2023-07-20T10:27:26;24.50;95.00
6118;DHT22;3089;48.202;11.510;2023-07-20T10:29:54;24.70;97.40
6118;DHT22;3089;48.202;11.510;2023-07-20T10:32:25;24.70;97.60
6118;DHT22;3089;48.202;11.510;2023-07-20T10:34:54;25.00;97.00
6118;DHT22;3089;48.202;11.510;2023-07-20T10:37:45;25.10;98.30
6118;DHT22;3089;48.202;11.510;2023-07-20T10:40:27;25.20;97.90
6118;DHT22;3089;48.202;11.510;2023-07-20T10:43:02;25.10;98.10
6118;DHT22;3089;48.202;11.510;2023-07-20T10:45:34;25.00;97.90
6118;DHT22;3089;48.202;11.510;2023-07-20T10:48:13;25.30;97.90
6118;DHT22;3089;48.202;11.510;2023-07-20T10:50:42;26.00;97.40
6118;DHT22;3089;48.202;11.510;2023-07-20T10:53:11;25.20;96.70
6118;DHT22;3089;48.202;11.510;2023-07-20T10:55:40;25.10;97.20
6118;DHT22;3089;48.202;11.510;2023-07-20T10:58:12;25.10;96.60
6118;DHT22;3089;48.202;11.510;2023-07-20T11:00:57;24.80;98.00
6118;DHT22;3089;48.202;11.510;2023-07-20T11:03:31;25.50;97.70
6118;DHT22;3089;48.202;11.510;2023-07-20T11:06:32;25.50;97.50
6118;DHT22;3089;48.202;11.510;2023-07-20T11:09:08;25.40;98.10
6118;DHT22;3089;48.202;11.510;2023-07-20T11:11:39;25.70;97.30
6118;DHT22;3089;48.202;11.510;2023-07-20T11:14:08;25.00;97.30
6118;DHT22;3089;48.202;11.510;2023-07-20T11:16:38;25.10;97.50
6118;DHT22;3089;48.202;11.510;2023-07-20T11:19:14;25.60;97.60
6118;DHT22;3089;48.202;11.510;2023-07-20T11:22:05;25.70;97.50
6118;DHT22;3089;48.202;11.510;2023-07-20T11:24:34;25.60;97.50
6118;DHT22;3089;48.202;11.510;2023-07-20T11:27:02;25.50;97.60
6118;DHT22;3089;48.202;11.510;2023-07-20T11:29:31;25.60;97.50
6118;DHT22;3089;48.202;11.510;2023-07-20T11:32:01;25.70;97.20
6118;DHT22;3089;48.202;11.510;2023-07-20T11:34:34;25.70;96.90
6118;DHT22;3089;48.202;11.510;2023-07-20T11:37:02;25.50;96.60
6118;DHT22;3089;48.202;11.510;2023-07-20T11:39:33;25.50;96.30
6118;DHT22;3089;48.202;11.510;2023-07-20T11:42:03;25.70;97.60
6118;DHT22;3089;48.202;11.510;2023-07-20T11:44:31;26.20;95.70
6118;DHT22;3089;48.202;11.510;2023-07-20T11:47:04;25.70;97.40
6118;DHT22;3089;48.202;11.510;2023-07-20T11:49:36;26.10;97.10
6118;DHT22;3089;48.202;11.510;2023-07-20T11:52:05;25.90;96.00
6118;DHT22;3089;48.202;11.510;2023-07-20T11:54:34;25.80;97.10
6118;DHT22;3089;48.202;11.510;2023-07-20T11:57:03;26.10;96.80
6118;DHT22;3089;48.202;11.510;2023-07-20T11:59:31;26.40;96.00
6118;DHT22;3089;48.202;11.510;2023-07-20T12:02:01;26.80;96.30
6118;DHT22;3089;48.202;11.510;2023-07-20T12:04:31;26.70;96.40
6118;DHT22;3089;48.202;11.510;2023-07-20T12:07:00;27.00;96.10
6118;DHT22;3089;48.202;11.510;2023-07-20T12:09:29;27.20;95.40
6118;DHT22;3089;48.202;11.510;2023-07-20T12:12:15;27.00;95.30
6118;DHT22;3089;48.202;11.510;2023-07-20T12:14:43;26.50;96.00
6118;DHT22;3089;48.202;11.510;2023-07-20T12:17:13;26.00;96.50
6118;DHT22;3089;48.202;11.510;2023-07-20T12:19:41;26.00;96.00
6118;DHT22;3089;48.202;11.510;2023-07-20T12:22:10;25.90;96.60
6118;DHT22;3089;48.202;11.510;2023-07-20T12:24:38;25.90;96.10
6118;DHT22;3089;48.202;11.510;2023-07-20T12:27:06;25.80;97.10
6118;DHT22;3089;48.202;11.510;2023-07-20T12:29:34;25.70;96.90
6118;DHT22;3089;48.202;11.510;2023-07-20T12:32:04;25.90;96.00
6118;DHT22;3089;48.202;11.510;2023-07-20T12:34:32;25.10;94.60
6118;DHT22;3089;48.202;11.510;2023-07-20T12:37:03;25.10;96.50
6118;DHT22;3089;48.202;11.510;2023-07-20T12:39:32;25.40;96.10
6118;DHT22;3089;48.202;11.510;2023-07-20T12:42:00;24.80;96.00
6118;DHT22;3089;48.202;11.510;2023-07-20T12:44:28;24.60;96.60
6118;DHT22;3089;48.202;11.510;2023-07-20T12:46:56;25.30;96.40
6118;DHT22;3089;48.202;11.510;2023-07-20T12:49:24;25.60;97.00
6118;DHT22;3089;48.202;11.510;2023-07-20T12:51:52;26.20;96.30
6118;DHT22;3089;48.202;11.510;2023-07-20T12:54:20;26.50;96.50
6118;DHT22;3089;48.202;11.510;2023-07-20T12:56:49;26.90;95.10
6118;DHT22;3089;48.202;11.510;2023-07-20T12:59:20;26.40;95.50
6118;DHT22;3089;48.202;11.510;2023-07-20T13:01:47;26.50;96.40
6118;DHT22;3089;48.202;11.510;2023-07-20T13:04:15;27.00;96.20
6118;DHT22;3089;48.202;11.510;2023-07-20T13:06:43;26.50;96.20
6118;DHT22;3089;48.202;11.510;2023-07-20T13:09:11;26.20;95.80
6118;DHT22;3089;48.202;11.510;2023-07-20T13:11:39;26.30;96.20
6118;DHT22;3089;48.202;11.510;2023-07-20T13:14:08;26.70;95.80
6118;DHT22;3089;48.202;11.510;2023-07-20T13:16:38;26.70;95.60
6118;DHT22;3089;48.202;11.510;2023-07-20T13:19:06;26.10;96.20
6118;DHT22;3089;48.202;11.510;2023-07-20T13:21:34;27.00;95.50
6118;DHT22;3089;48.202;11.510;2023-07-20T13:24:05;26.30;96.30
6118;DHT22;3089;48.202;11.510;2023-07-20T13:26:33;26.90;96.30
6118;DHT22;3089;48.202;11.510;2023-07-20T13:29:02;27.10;95.60
6118;DHT22;3089;48.202;11.510;2023-07-20T13:31:31;26.20;94.60
6118;DHT22;3089;48.202;11.510;2023-07-20T13:34:01;26.40;96.50
6118;DHT22;3089;48.202;11.510;2023-07-20T13:36:30;26.20;96.20
6118;DHT22;3089;48.202;11.510;2023-07-20T13:38:58;26.60;95.50
6118;DHT22;3089;48.202;11.510;2023-07-20T13:41:26;26.80;96.20
6118;DHT22;3089;48.202;11.510;2023-07-20T13:43:56;27.20;95.80
6118;DHT22;3089;48.202;11.510;2023-07-20T13:46:24;27.10;94.90
6118;DHT22;3089;48.202;11.510;2023-07-20T13:48:56;27.40;95.40
6118;DHT22;3089;48.202;11.510;2023-07-20T13:51:24;27.50;95.40
6118;DHT22;3089;48.202;11.510;2023-07-20T13:53:54;26.60;93.20
6118;DHT22;3089;48.202;11.510;2023-07-20T13:56:22;26.00;96.10
6118;DHT22;3089;48.202;11.510;2023-07-20T13:58:51;25.90;96.40
6118;DHT22;3089;48.202;11.510;2023-07-20T14:01:19;25.80;93.50
6118;DHT22;3089;48.202;11.510;2023-07-20T14:03:49;25.70;96.40
6118;DHT22;3089;48.202;11.510;2023-07-20T14:06:21;26.40;96.60
6118;DHT22;3089;48.202;11.510;2023-07-20T14:08:52;26.80;96.20
6118;DHT22;3089;48.202;11.510;2023-07-20T14:11:20;26.00;95.40
6118;DHT22;3089;48.202;11.510;2023-07-20T14:13:51;26.10;96.70
6118;DHT22;3089;48.202;11.510;2023-07-20T14:16:19;26.90;96.10
6118;DHT22;3089;48.202;11.510;2023-07-20T14:18:48;27.00;95.50
6118;DHT22;3089;48.202;11.510;2023-07-20T14:21:16;26.00;95.00
6118;DHT22;3089;48.202;11.510;2023-07-20T14:23:47;26.40;96.00
6118;DHT22;3089;48.202;11.510;2023-07-20T14:26:19;26.50;94.50
6118;DHT22;3089;48.202;11.510;2023-07-20T14:28:48;26.30;95.40
6118;DHT22;3089;48.202;11.510;2023-07-20T14:31:16;26.50;96.10
6118;DHT22;3089;48.202;11.510;2023-07-20T14:33:45;26.70;95.50
6118;DHT22;3089;48.202;11.510;2023-07-20T14:36:13;26.20;92.30
6118;DHT22;3089;48.202;11.510;2023-07-20T14:38:41;26.10;93.30
6118;DHT22;3089;48.202;11.510;2023-07-20T14:41:10;25.80;94.40
6118;DHT22;3089;48.202;11.510;2023-07-20T14:43:38;25.60;95.80
6118;DHT22;3089;48.202;11.510;2023-07-20T14:46:06;25.80;94.20
6118;DHT22;3089;48.202;11.510;2023-07-20T14:48:34;26.50;95.90
6118;DHT22;3089;48.202;11.510;2023-07-20T14:51:02;26.00;92.70
6118;DHT22;3089;48.202;11.510;2023-07-20T14:53:31;26.20;93.70
6118;DHT22;3089;48.202;11.510;2023-07-20T14:56:03;26.00;96.30
6118;DHT22;3089;48.202;11.510;2023-07-20T14:58:32;26.30;94.30
6118;DHT22;3089;48.202;11.510;2023-07-20T15:01:02;25.60;93.50
6118;DHT22;3089;48.202;11.510;2023-07-20T15:03:30;25.80;95.00
6118;DHT22;3089;48.202;11.510;2023-07-20T15:05:58;25.60;94.70
6118;DHT22;3089;48.202;11.510;2023-07-20T15:08:26;25.50;93.40
6118;DHT22;3089;48.202;11.510;2023-07-20T15:10:54;25.80;96.70
6118;DHT22;3089;48.202;11.510;2023-07-20T15:13:22;26.00;96.20
6118;DHT22;3089;48.202;11.510;2023-07-20T15:15:52;25.50;95.50
6118;DHT22;3089;48.202;11.510;2023-07-20T15:18:19;26.00;94.20
6118;DHT22;3089;48.202;11.510;2023-07-20T15:21:07;26.00;95.00
6118;DHT22;3089;48.202;11.510;2023-07-20T15:23:35;25.60;94.10
6118;DHT22;3089;48.202;11.510;2023-07-20T15:26:03;25.40;94.60
6118;DHT22;3089;48.202;11.510;2023-07-20T15:28:30;25.80;95.60
6118;DHT22;3089;48.202;11.510;2023-07-20T15:31:01;25.70;96.30
6118;DHT22;3089;48.202;11.510;2023-07-20T15:33:29;26.10;97.00
6118;DHT22;3089;48.202;11.510;2023-07-20T15:35:57;26.20;96.90
6118;DHT22;3089;48.202;11.510;2023-07-20T15:38:25;26.10;93.70
6118;DHT22;3089;48.202;11.510;2023-07-20T15:40:53;26.20;96.10
6118;DHT22;3089;48.202;11.510;2023-07-20T15:43:22;26.00;93.50
6118;DHT22;3089;48.202;11.510;2023-07-20T15:45:49;25.60;94.40
6118;DHT22;3089;48.202;11.510;2023-07-20T15:48:19;25.90;96.00
6118;DHT22;3089;48.202;11.510;2023-07-20T15:50:49;25.30;93.90
6118;DHT22;3089;48.202;11.510;2023-07-20T15:53:19;25.70;96.50
6118;DHT22;3089;48.202;11.510;2023-07-20T15:55:53;25.40;93.00
6118;DHT22;3089;48.202;11.510;2023-07-20T15:58:22;25.30;97.00